Etusivu
METAR-TAF:

METAR-TAF

Lentoasemat :

Illinois Valley Regional Airport (Walter A. Duncan Field)

Peru / LaSalle, Illinois, Yhdysvallat

Leveyspiiri: 41-21-07N, Pituuspiiri: 089-09-11W, korkeus merenpinnasta: 199 m

Tämänhetkinen sää

Tämä raportti tehtiin 39 minuuttia sitten, kello 17.55 UTC
Tuuli 7 kn lännestä/luoteesta
Lämpötila -10°C
Kosteus 48%
Ilmanpaine 1035 hPa
Näkyvyys: 16.1 km
selkeää

METAR: KVYS 121755Z AUTO 29007KT 10SM CLR M10/M19 A3055 RMK AO2 T11021188 11102 21151

Aika: 12:34 (18:34 UTC)


TAF: puuttuu

Säähavainnot ja -ennusteet yli 4000 lentoasemalta (METAR- ja TAF-raportit).

Käytössä olevat sääasemat on merkitty karttaan keltaisilla ja punaisilla pisteillä.

Aseta hiiri pisteen päälle nähdäksesi sääaseman nimen.

Klikkaa sitten nähdäksesi säähavainnot ja -ennusteet.

Kartan vaihtaminen: klikkaa mustalla rastilla varustettuja vihreitä pisteitä, niin voit zoomata sisään; viivalla varustettua vihreää pistettä, niin voit zoomata ulos tai vihreitä nuolia, niin pääset viereisille kartoille.


METAR-TAF: